Time;durP1;ratioP1;P1;durP2;ratioP2;P2;SDS_P1;SDS_P2;PMS_P1;PMS_P2;Temp;Humidity;BMP_temperature;BMP_pressure;BME280_temperature;BME280_humidity;BME280_pressure;Samples;Min_cycle;Max_cycle;Signal;HPM_P1;HPM_P2
2023/01/03 00:02:22;;;;;;;8.53;6.70;;;7.30;99.90;;;;;;5065802;28;20202;-62
2023/01/03 00:04:49;;;;;;;8.60;6.73;;;7.40;99.90;;;;;;5045899;28;20201;-61
2023/01/03 00:07:32;;;;;;;10.47;6.93;;;7.20;99.90;;;;;;5069355;28;20290;-62
2023/01/03 00:10:06;;;;;;;13.73;6.63;;;7.20;99.90;;;;;;5066695;28;20576;-60
2023/01/03 00:12:32;;;;;;;10.43;7.33;;;7.10;99.90;;;;;;5061876;28;20207;-60
2023/01/03 00:15:00;;;;;;;10.60;7.10;;;7.10;99.90;;;;;;5063595;28;20671;-61
2023/01/03 00:17:27;;;;;;;10.30;7.60;;;7.10;99.90;;;;;;5064371;28;21098;-60
2023/01/03 00:19:55;;;;;;;12.93;8.03;;;7.10;99.90;;;;;;5059493;28;20219;-61
2023/01/03 00:22:22;;;;;;;11.30;7.67;;;7.10;99.90;;;;;;5081813;28;20233;-60
2023/01/03 00:24:50;;;;;;;11.43;8.40;;;7.40;99.90;;;;;;5059207;28;20210;-60
2023/01/03 00:27:17;;;;;;;13.27;8.80;;;7.40;99.90;;;;;;5071474;28;20242;-60
2023/01/03 00:29:44;;;;;;;12.33;8.53;;;7.40;99.90;;;;;;5068861;28;20228;-60
2023/01/03 00:32:11;;;;;;;14.43;8.90;;;7.40;99.90;;;;;;5071278;28;20205;-61
2023/01/03 00:34:38;;;;;;;13.03;8.80;;;7.40;99.90;;;;;;5071456;28;20286;-60
2023/01/03 00:37:05;;;;;;;14.80;9.40;;;7.50;99.90;;;;;;5070194;28;20675;-61
2023/01/03 00:39:32;;;;;;;13.30;8.70;;;7.40;99.90;;;;;;5064749;28;20218;-61
2023/01/03 00:41:59;;;;;;;12.57;9.03;;;7.50;99.90;;;;;;5067379;28;21826;-61
2023/01/03 00:44:26;;;;;;;14.90;9.20;;;7.40;99.90;;;;;;5070229;28;20214;-61
2023/01/03 00:46:53;;;;;;;13.47;9.90;;;7.50;99.90;;;;;;5067751;28;20246;-60
2023/01/03 00:49:20;;;;;;;12.53;8.63;;;7.40;99.90;;;;;;5065769;28;20887;-60
2023/01/03 00:51:47;;;;;;;10.60;8.97;;;7.40;99.90;;;;;;5068922;28;20228;-61
2023/01/03 00:54:14;;;;;;;13.00;9.17;;;7.30;99.90;;;;;;5071594;28;20199;-60
2023/01/03 00:56:44;;;;;;;15.03;9.77;;;7.10;99.90;;;;;;5073517;28;20223;-61
2023/01/03 00:59:12;;;;;;;16.30;9.97;;;7.20;99.90;;;;;;5073548;28;20199;-60
2023/01/03 01:01:59;;;;;;;18.13;10.03;;;7.20;99.90;;;;;;5070794;28;20304;-61
2023/01/03 01:04:29;;;;;;;14.03;9.33;;;7.10;99.90;;;;;;5074520;28;20257;-60
2023/01/03 01:06:58;;;;;;;17.87;10.60;;;7.10;99.90;;;;;;5070285;28;20232;-61
2023/01/03 01:09:34;;;;;;;13.67;9.87;;;7.20;99.90;;;;;;5074994;28;20219;-60
2023/01/03 01:12:02;;;;;;;12.10;9.53;;;7.20;99.90;;;;;;5071983;28;20661;-60
2023/01/03 01:14:32;;;;;;;13.37;9.80;;;7.10;99.90;;;;;;5068863;28;20290;-61
2023/01/03 01:17:01;;;;;;;12.80;9.57;;;7.00;99.90;;;;;;5070949;28;20211;-60
2023/01/03 01:19:49;;;;;;;15.83;9.87;;;6.90;99.90;;;;;;5071272;28;20208;-60
2023/01/03 01:22:15;;;;;;;14.70;9.70;;;6.80;99.90;;;;;;5071019;28;20201;-60
2023/01/03 01:24:42;;;;;;;13.33;10.97;;;6.90;99.90;;;;;;5069205;28;20230;-61
2023/01/03 01:27:09;;;;;;;17.53;10.97;;;7.00;99.90;;;;;;5070969;28;20233;-60
2023/01/03 01:29:37;;;;;;;13.80;9.57;;;7.00;99.90;;;;;;5069768;28;20306;-60
2023/01/03 01:32:04;;;;;;;16.77;11.20;;;6.90;99.90;;;;;;5070659;28;20650;-61
2023/01/03 01:34:32;;;;;;;14.53;10.23;;;6.70;99.90;;;;;;5068692;28;20211;-61
2023/01/03 01:36:58;;;;;;;11.87;9.80;;;6.80;99.90;;;;;;5072386;28;20543;-61
2023/01/03 01:39:27;;;;;;;15.73;10.33;;;6.80;99.90;;;;;;5069623;28;20282;-60
2023/01/03 01:45:00;;;;;;;13.40;10.00;;;6.80;99.90;;;;;;5073565;28;20206;-60
2023/01/03 01:47:46;;;;;;;16.27;10.17;;;6.60;99.90;;;;;;5070420;28;21185;-60
2023/01/03 01:50:32;;;;;;;15.67;10.67;;;6.60;99.90;;;;;;5072046;28;20220;-60
2023/01/03 01:53:13;;;;;;;15.30;10.97;;;6.60;99.90;;;;;;5067872;28;20892;-60
2023/01/03 01:55:40;;;;;;;14.73;10.80;;;6.60;99.90;;;;;;5064936;28;20204;-61
2023/01/03 01:58:08;;;;;;;12.10;9.07;;;6.60;99.90;;;;;;5067857;28;20205;-60
2023/01/03 02:00:36;;;;;;;13.23;9.97;;;6.50;99.90;;;;;;5070075;28;20248;-61
2023/01/03 02:03:03;;;;;;;14.97;10.57;;;6.40;99.90;;;;;;5067186;28;20714;-62
2023/01/03 02:05:33;;;;;;;14.63;10.47;;;6.30;99.90;;;;;;5070049;28;20200;-60
2023/01/03 02:08:02;;;;;;;16.30;10.83;;;6.40;99.90;;;;;;5068172;28;20298;-61
2023/01/03 02:10:41;;;;;;;11.30;9.00;;;6.30;99.90;;;;;;5068714;28;20223;-61
2023/01/03 02:13:37;;;;;;;15.70;9.50;;;6.20;99.90;;;;;;5071043;28;20231;-61
2023/01/03 02:16:28;;;;;;;15.10;8.83;;;6.10;99.90;;;;;;5070932;28;20206;-60
2023/01/03 02:19:20;;;;;;;16.27;9.47;;;6.00;99.90;;;;;;5069261;28;20650;-60
2023/01/03 02:22:01;;;;;;;12.07;8.80;;;6.10;99.90;;;;;;5069820;28;20242;-61
2023/01/03 02:25:09;;;;;;;13.10;8.40;;;6.20;99.90;;;;;;5072110;28;20199;-61
2023/01/03 02:27:45;;;;;;;11.80;8.73;;;6.00;99.90;;;;;;5039357;28;20641;-61
2023/01/03 02:30:38;;;;;;;10.60;8.03;;;6.10;99.90;;;;;;5053849;28;20604;-60
2023/01/03 02:33:26;;;;;;;12.97;8.07;;;6.20;99.90;;;;;;5066148;28;20232;-60
2023/01/03 02:36:19;;;;;;;13.97;8.40;;;6.00;99.90;;;;;;5055693;28;20281;-60
2023/01/03 02:39:01;;;;;;;13.37;8.13;;;6.10;99.90;;;;;;5071652;28;20578;-60
2023/01/03 02:42:56;;;;;;;11.07;7.97;;;5.90;99.90;;;;;;5076443;28;20237;-61
2023/01/03 02:44:48;;;;;;;11.83;7.83;;;6.10;99.90;;;;;;5073277;28;20204;-61
2023/01/03 02:47:20;;;;;;;10.43;7.97;;;6.20;99.90;;;;;;5073532;28;20288;-60
2023/01/03 02:49:52;;;;;;;14.00;8.60;;;5.90;99.90;;;;;;5073171;28;20222;-60
2023/01/03 02:52:23;;;;;;;11.57;7.80;;;6.00;99.90;;;;;;5073553;28;20278;-60
2023/01/03 02:55:05;;;;;;;10.40;7.63;;;5.70;99.90;;;;;;5073666;28;20733;-60
2023/01/03 02:57:44;;;;;;;11.97;8.33;;;5.70;99.90;;;;;;5071739;28;20309;-61
2023/01/03 03:00:24;;;;;;;11.33;8.43;;;5.50;99.90;;;;;;5075211;28;20215;-62
2023/01/03 03:02:57;;;;;;;13.50;8.57;;;5.60;99.90;;;;;;5089916;28;20285;-60
2023/01/03 03:05:30;;;;;;;12.60;7.20;;;5.50;99.90;;;;;;5071482;28;20672;-61
2023/01/03 03:07:57;;;;;;;11.73;8.03;;;5.40;99.90;;;;;;5073681;28;20206;-64
2023/01/03 03:13:28;;;;;;;10.70;8.30;;;5.20;99.90;;;;;;5075085;28;20213;-61
2023/01/03 03:16:08;;;;;;;15.77;8.47;;;5.20;99.90;;;;;;5074956;28;20195;-60
2023/01/03 03:19:00;;;;;;;11.90;7.67;;;5.20;99.90;;;;;;5072703;28;20276;-61
2023/01/03 03:30:04;;;;;;;14.20;7.43;;;5.20;99.90;;;;;;5074424;28;20511;-61
2023/01/03 03:32:33;;;;;;;11.80;7.40;;;5.10;99.90;;;;;;5073293;28;20202;-61
2023/01/03 03:35:03;;;;;;;17.67;7.50;;;5.00;99.90;;;;;;5070427;28;20228;-61
2023/01/03 03:37:33;;;;;;;11.47;6.90;;;5.00;99.90;;;;;;5072844;28;20201;-62
2023/01/03 03:45:58;;;;;;;9.47;6.87;;;4.90;99.90;;;;;;5074150;28;20205;-61
2023/01/03 03:49:36;;;;;;;11.37;6.87;;;4.90;99.90;;;;;;5057873;28;20665;-61
2023/01/03 03:51:26;;;;;;;12.03;6.93;;;4.80;99.90;;;;;;5072660;28;20467;-61
2023/01/03 03:53:54;;;;;;;8.40;6.57;;;4.80;99.90;;;;;;5075640;28;20208;-61
2023/01/03 03:56:27;;;;;;;10.87;6.43;;;4.80;99.90;;;;;;5060751;28;20205;-63
2023/01/03 03:58:59;;;;;;;8.87;6.80;;;4.80;99.90;;;;;;5071779;28;20207;-61
2023/01/03 04:01:27;;;;;;;11.73;6.90;;;4.90;99.90;;;;;;5071817;28;20201;-61
2023/01/03 04:03:59;;;;;;;13.87;7.17;;;4.90;99.90;;;;;;5071171;28;20196;-62
2023/01/03 04:06:34;;;;;;;9.87;6.30;;;4.90;99.90;;;;;;5074986;28;20556;-61
2023/01/03 04:09:01;;;;;;;11.20;6.87;;;4.80;99.90;;;;;;5073392;28;20193;-61
2023/01/03 04:11:28;;;;;;;9.90;7.10;;;4.80;99.90;;;;;;5072477;28;20317;-61
2023/01/03 04:13:54;;;;;;;13.07;6.93;;;5.00;99.90;;;;;;5069792;28;20259;-61
2023/01/03 04:16:21;;;;;;;11.87;6.63;;;5.00;99.90;;;;;;5072861;28;20193;-62
2023/01/03 04:18:48;;;;;;;10.47;6.83;;;5.00;99.90;;;;;;5063000;28;20202;-61
2023/01/03 04:21:15;;;;;;;9.63;6.50;;;5.00;99.90;;;;;;5065248;28;20214;-61
2023/01/03 04:23:46;;;;;;;14.50;6.93;;;5.00;99.90;;;;;;5068914;28;20622;-61
2023/01/03 04:26:13;;;;;;;11.00;6.80;;;5.00;99.90;;;;;;5069339;28;20636;-61
2023/01/03 04:28:40;;;;;;;14.40;7.20;;;5.00;99.90;;;;;;5064995;28;20224;-61
2023/01/03 04:31:07;;;;;;;12.30;6.47;;;5.00;99.90;;;;;;5069420;28;20210;-61
2023/01/03 04:33:34;;;;;;;9.67;5.90;;;5.00;99.90;;;;;;5065908;28;20204;-61
2023/01/03 04:36:00;;;;;;;10.23;6.97;;;5.10;99.90;;;;;;5067434;28;20205;-62
2023/01/03 04:38:27;;;;;;;10.83;6.53;;;5.10;99.90;;;;;;5067814;28;20678;-61
2023/01/03 04:40:54;;;;;;;12.70;6.70;;;5.20;99.90;;;;;;5068292;28;20765;-61
2023/01/03 04:46:06;;;;;;;11.73;6.13;;;5.50;99.90;;;;;;5068754;28;20214;-61
2023/01/03 04:48:33;;;;;;;9.97;6.63;;;5.40;99.90;;;;;;5067625;28;20601;-61
2023/01/03 04:51:00;;;;;;;10.17;6.33;;;5.50;99.90;;;;;;5065586;28;20345;-61
2023/01/03 04:53:27;;;;;;;8.27;6.23;;;5.60;99.90;;;;;;5069263;28;20650;-61
2023/01/03 04:55:57;;;;;;;10.53;6.73;;;5.60;99.90;;;;;;5063811;28;20191;-61
2023/01/03 04:58:25;;;;;;;11.37;7.07;;;5.50;99.90;;;;;;5065186;28;20201;-61
2023/01/03 05:00:57;;;;;;;14.87;6.83;;;5.60;99.90;;;;;;5066676;28;20291;-61
2023/01/03 05:03:24;;;;;;;9.87;5.67;;;5.50;99.90;;;;;;5062816;28;20553;-61
2023/01/03 05:06:01;;;;;;;9.73;6.40;;;5.50;99.90;;;;;;5063550;28;20207;-61
2023/01/03 05:08:28;;;;;;;8.47;6.37;;;5.50;99.90;;;;;;5047878;28;20210;-61
2023/01/03 05:10:54;;;;;;;8.17;6.20;;;5.40;99.90;;;;;;5065719;28;20222;-61
2023/01/03 05:13:22;;;;;;;10.47;6.13;;;5.40;99.90;;;;;;5064536;28;20300;-61
2023/01/03 05:15:49;;;;;;;11.10;6.20;;;5.50;99.90;;;;;;5062122;28;20297;-63
2023/01/03 05:18:16;;;;;;;9.67;6.17;;;5.60;99.90;;;;;;5060432;28;20196;-61
2023/01/03 05:26:19;;;;;;;6.80;5.53;;;5.60;99.90;;;;;;5063787;28;20337;-61
2023/01/03 05:28:50;;;;;;;10.03;6.23;;;5.60;99.90;;;;;;5058927;28;20206;-62
2023/01/03 05:31:17;;;;;;;10.23;5.70;;;5.70;99.90;;;;;;5061130;28;20237;-62
2023/01/03 05:33:44;;;;;;;12.33;6.00;;;5.70;99.90;;;;;;5069494;28;20233;-62
2023/01/03 05:36:11;;;;;;;10.70;5.90;;;5.80;99.90;;;;;;5065370;28;20287;-61
2023/01/03 05:38:38;;;;;;;9.30;5.70;;;5.80;99.90;;;;;;5071292;28;20353;-61
2023/01/03 05:41:05;;;;;;;8.47;6.00;;;5.80;99.90;;;;;;5071656;28;20726;-62
2023/01/03 05:43:32;;;;;;;11.77;6.13;;;5.90;99.90;;;;;;5072161;28;20245;-61
2023/01/03 05:45:59;;;;;;;9.03;6.07;;;5.90;99.90;;;;;;5068578;28;20211;-61
2023/01/03 05:48:26;;;;;;;10.17;6.27;;;5.80;99.90;;;;;;5065785;28;20601;-60
2023/01/03 05:50:56;;;;;;;9.80;5.70;;;5.80;99.90;;;;;;5070706;28;20649;-61
2023/01/03 05:53:23;;;;;;;9.97;5.27;;;5.80;99.90;;;;;;5069611;28;20204;-62
2023/01/03 05:55:50;;;;;;;9.20;5.43;;;5.90;99.90;;;;;;5068432;28;20640;-62
2023/01/03 05:58:17;;;;;;;9.67;5.90;;;5.80;99.90;;;;;;5063240;28;20246;-61
2023/01/03 06:00:44;;;;;;;10.57;6.13;;;5.80;99.90;;;;;;5068790;28;20242;-61
2023/01/03 06:03:11;;;;;;;9.23;6.33;;;5.90;99.90;;;;;;5069707;28;20204;-62
2023/01/03 06:05:38;;;;;;;10.33;6.53;;;5.90;99.90;;;;;;5069895;28;20198;-62
2023/01/03 06:08:12;;;;;;;9.80;5.90;;;5.90;99.90;;;;;;5071232;28;20280;-60
2023/01/03 06:10:39;;;;;;;9.33;6.43;;;5.90;99.90;;;;;;5070313;28;20222;-61
2023/01/03 06:13:06;;;;;;;10.77;6.33;;;5.90;99.90;;;;;;5071965;28;20662;-63
2023/01/03 06:15:33;;;;;;;11.53;6.73;;;5.80;99.90;;;;;;5067984;28;20207;-64
2023/01/03 06:18:01;;;;;;;8.70;6.73;;;5.80;99.90;;;;;;5072221;28;20283;-61
2023/01/03 06:20:29;;;;;;;10.70;6.20;;;5.90;99.90;;;;;;5070753;28;20207;-60
2023/01/03 06:22:56;;;;;;;14.30;7.20;;;5.90;99.90;;;;;;5072503;28;20223;-60
2023/01/03 06:25:23;;;;;;;10.53;6.40;;;6.00;99.90;;;;;;5075266;28;20205;-61
2023/01/03 06:27:50;;;;;;;8.77;6.60;;;6.00;99.90;;;;;;5074149;28;20205;-62
2023/01/03 06:30:17;;;;;;;11.27;6.77;;;6.00;99.90;;;;;;5067509;28;20249;-60
2023/01/03 06:32:43;;;;;;;10.20;5.80;;;6.10;99.90;;;;;;5077324;28;20737;-61
2023/01/03 06:35:11;;;;;;;11.03;6.63;;;6.10;99.90;;;;;;5066777;28;20195;-61
2023/01/03 06:37:37;;;;;;;9.93;6.13;;;6.10;99.90;;;;;;5074303;28;20218;-61
2023/01/03 06:40:05;;;;;;;14.40;6.30;;;6.00;99.90;;;;;;5070431;28;22053;-61
2023/01/03 06:42:41;;;;;;;11.20;6.50;;;6.00;99.90;;;;;;5070310;28;20266;-61
2023/01/03 06:53:37;;;;;;;13.97;6.67;;;6.10;99.90;;;;;;5069598;28;20714;-61
2023/01/03 06:56:04;;;;;;;7.37;5.70;;;6.10;99.90;;;;;;5073035;28;20273;-60
2023/01/03 06:58:31;;;;;;;8.17;5.77;;;5.80;99.90;;;;;;5075930;28;20706;-61
2023/01/03 07:01:02;;;;;;;13.60;5.93;;;5.90;99.90;;;;;;5062790;28;20298;-61
2023/01/03 07:03:32;;;;;;;9.20;6.03;;;5.90;99.90;;;;;;5071033;28;20231;-61
2023/01/03 07:05:59;;;;;;;9.87;6.47;;;5.90;99.90;;;;;;5073885;28;20231;-61
2023/01/03 07:08:26;;;;;;;10.37;6.57;;;5.90;99.90;;;;;;5070773;28;20242;-63
2023/01/03 07:10:54;;;;;;;8.63;5.30;;;5.90;99.90;;;;;;5073776;28;20605;-63
2023/01/03 07:16:06;;;;;;;11.67;6.47;;;6.00;99.90;;;;;;5076966;28;20201;-60
2023/01/03 07:18:33;;;;;;;8.43;5.73;;;6.00;99.90;;;;;;5069804;28;20203;-61
2023/01/03 07:20:59;;;;;;;7.67;5.43;;;5.90;99.90;;;;;;5068004;28;20203;-61
2023/01/03 07:23:26;;;;;;;8.67;5.30;;;5.70;99.90;;;;;;5067011;28;20215;-63
2023/01/03 07:25:54;;;;;;;10.73;5.40;;;5.60;99.90;;;;;;5068458;28;20203;-61
2023/01/03 07:28:21;;;;;;;10.30;6.00;;;5.50;99.90;;;;;;5070758;28;20271;-61
2023/01/03 07:30:48;;;;;;;7.47;5.23;;;5.60;99.90;;;;;;5074556;28;20669;-61
2023/01/03 07:33:16;;;;;;;7.43;5.27;;;5.70;99.90;;;;;;5069088;28;20562;-61
2023/01/03 07:35:43;;;;;;;8.90;5.83;;;5.60;99.90;;;;;;4695376;28;10000460;-62
2023/01/03 07:38:12;;;;;;;5.97;4.70;;;5.80;99.90;;;;;;5062372;28;20667;-61
2023/01/03 07:40:39;;;;;;;6.10;4.23;;;5.80;99.90;;;;;;5065128;28;20716;-62
2023/01/03 07:45:52;;;;;;;7.90;4.77;;;5.80;99.90;;;;;;5071997;28;20297;-61
2023/01/03 07:48:19;;;;;;;6.90;4.73;;;5.80;99.90;;;;;;5066736;28;20272;-61
2023/01/03 07:50:46;;;;;;;7.57;4.87;;;5.90;99.90;;;;;;5068401;28;20245;-60
2023/01/03 07:53:15;;;;;;;8.27;4.67;;;5.80;99.90;;;;;;5076070;28;20219;-61
2023/01/03 07:55:46;;;;;;;9.63;5.33;;;5.70;99.90;;;;;;5065640;28;21121;-62
2023/01/03 07:58:13;;;;;;;8.00;5.10;;;5.80;99.90;;;;;;5054580;28;20227;-64
2023/01/03 08:00:41;;;;;;;7.33;4.93;;;5.80;99.90;;;;;;5071508;28;20207;-61
2023/01/03 08:03:08;;;;;;;6.67;4.67;;;5.80;99.90;;;;;;5069436;28;20225;-64
2023/01/03 08:05:37;;;;;;;8.57;5.53;;;5.70;99.90;;;;;;5067110;28;20601;-60
2023/01/03 08:08:04;;;;;;;9.20;5.63;;;5.70;99.90;;;;;;5065885;28;20203;-60
2023/01/03 08:13:16;;;;;;;9.70;6.27;;;5.80;99.90;;;;;;5069547;28;20235;-60
2023/01/03 08:15:51;;;;;;;9.50;6.00;;;5.90;99.90;;;;;;5068711;28;20373;-61
2023/01/03 08:18:26;;;;;;;9.40;6.20;;;5.90;99.90;;;;;;5060572;28;20199;-60
2023/01/03 08:20:56;;;;;;;10.13;6.50;;;5.90;99.90;;;;;;5065560;28;20202;-61
2023/01/03 08:23:24;;;;;;;9.43;5.67;;;5.90;99.90;;;;;;5066556;28;20207;-61
2023/01/03 08:25:51;;;;;;;10.33;6.50;;;5.90;99.90;;;;;;5064351;28;20207;-61
2023/01/03 08:28:18;;;;;;;9.67;5.87;;;5.90;99.90;;;;;;5062026;28;20202;-61
2023/01/03 08:30:48;;;;;;;8.83;6.60;;;6.00;99.90;;;;;;5061699;28;20292;-61
2023/01/03 08:33:17;;;;;;;11.73;7.03;;;6.10;99.90;;;;;;5065144;28;20199;-61
2023/01/03 08:35:49;;;;;;;11.80;6.93;;;6.10;99.90;;;;;;5067257;28;20530;-61
2023/01/03 08:38:23;;;;;;;11.37;7.37;;;6.10;99.90;;;;;;5059936;28;20206;-60
2023/01/03 08:40:50;;;;;;;12.70;7.57;;;6.10;99.90;;;;;;5066087;28;20210;-61
2023/01/03 08:43:17;;;;;;;13.40;7.70;;;6.10;99.90;;;;;;5063750;28;20214;-60
2023/01/03 08:45:46;;;;;;;16.47;7.83;;;6.10;99.90;;;;;;5064653;28;20218;-62
2023/01/03 08:48:17;;;;;;;11.93;7.63;;;6.20;99.90;;;;;;5064975;28;20199;-60
2023/01/03 08:50:45;;;;;;;11.77;7.60;;;6.30;99.90;;;;;;5049376;28;20211;-61
2023/01/03 08:53:11;;;;;;;11.60;7.07;;;6.30;99.90;;;;;;5062794;28;20231;-61
2023/01/03 08:55:38;;;;;;;12.97;7.93;;;6.30;99.90;;;;;;5063745;28;20238;-61
2023/01/03 08:58:08;;;;;;;18.07;8.23;;;6.30;99.90;;;;;;5058305;28;20215;-61
2023/01/03 09:00:36;;;;;;;14.77;8.03;;;6.40;99.90;;;;;;5062472;28;20207;-61
2023/01/03 09:03:03;;;;;;;15.13;8.40;;;6.40;99.90;;;;;;5062471;28;20647;-61
2023/01/03 09:05:30;;;;;;;17.27;8.70;;;6.40;99.90;;;;;;5065918;28;20201;-62
2023/01/03 09:07:57;;;;;;;13.20;7.73;;;6.40;99.90;;;;;;5062646;28;20287;-61
2023/01/03 09:10:24;;;;;;;14.23;8.57;;;6.40;99.90;;;;;;5065102;28;20210;-61
2023/01/03 09:12:51;;;;;;;15.17;9.33;;;6.50;99.90;;;;;;5062735;28;20214;-61
2023/01/03 09:15:18;;;;;;;14.20;8.73;;;6.50;99.90;;;;;;5065778;28;20210;-62
2023/01/03 09:17:47;;;;;;;15.60;9.77;;;6.60;99.90;;;;;;5063947;28;20199;-62
2023/01/03 09:20:16;;;;;;;13.97;8.57;;;6.60;99.90;;;;;;5063955;28;20313;-61
2023/01/03 09:22:43;;;;;;;14.37;8.83;;;6.70;99.90;;;;;;5064911;28;20282;-62
2023/01/03 09:25:10;;;;;;;14.60;8.70;;;6.80;99.90;;;;;;5058600;28;20351;-62
2023/01/03 09:27:36;;;;;;;17.70;9.30;;;6.70;99.90;;;;;;5059190;28;20238;-62
2023/01/03 09:30:04;;;;;;;25.17;10.37;;;6.80;99.90;;;;;;5057918;28;20203;-61
2023/01/03 09:32:30;;;;;;;15.97;9.00;;;6.80;99.90;;;;;;5058059;28;20212;-62
2023/01/03 09:34:57;;;;;;;16.90;8.70;;;6.80;99.90;;;;;;5056806;28;20196;-62
2023/01/03 09:37:24;;;;;;;13.97;7.47;;;6.80;99.90;;;;;;5063741;28;20302;-63
2023/01/03 09:39:51;;;;;;;18.00;9.43;;;6.90;99.90;;;;;;5060446;28;20199;-63
2023/01/03 09:45:12;;;;;;;11.37;6.83;;;6.90;99.90;;;;;;5064456;28;20227;-61
2023/01/03 09:47:40;;;;;;;15.70;9.40;;;6.90;99.90;;;;;;5059816;28;20694;-62
2023/01/03 09:50:22;;;;;;;15.70;7.83;;;6.90;99.90;;;;;;5062798;28;20295;-62
2023/01/03 10:04:35;;;;;;;11.97;7.47;;;7.10;99.90;;;;;;5061113;28;20202;-62
2023/01/03 10:07:26;;;;;;;21.37;7.83;;;7.20;99.90;;;;;;5062076;28;20686;-62
2023/01/03 10:09:58;;;;;;;12.27;7.87;;;7.20;99.90;;;;;;5062120;28;20290;-62
2023/01/03 10:12:44;;;;;;;12.77;6.60;;;7.20;99.90;;;;;;5061559;28;20582;-63
2023/01/03 10:15:20;;;;;;;11.80;7.03;;;7.30;99.90;;;;;;5060664;28;20299;-62
2023/01/03 10:18:05;;;;;;;17.63;7.47;;;7.30;99.90;;;;;;5059950;28;21161;-63
2023/01/03 10:20:47;;;;;;;13.07;7.10;;;7.40;99.90;;;;;;5064697;28;20198;-63
2023/01/03 10:23:14;;;;;;;12.17;6.83;;;7.40;99.90;;;;;;5061573;28;20199;-62
2023/01/03 10:25:44;;;;;;;14.70;7.23;;;7.40;99.90;;;;;;5055788;28;20317;-61
2023/01/03 10:28:23;;;;;;;10.83;6.30;;;7.40;99.90;;;;;;5047803;28;20324;-67
2023/01/03 10:31:19;;;;;;;10.17;6.40;;;7.40;99.90;;;;;;5062042;28;20613;-61
2023/01/03 10:33:48;;;;;;;12.47;7.50;;;7.40;99.90;;;;;;5057758;28;20309;-62
2023/01/03 10:36:17;;;;;;;12.63;6.90;;;7.50;99.90;;;;;;5058225;28;20204;-61
2023/01/03 10:38:44;;;;;;;12.33;7.23;;;7.50;99.90;;;;;;5058618;28;20203;-62
2023/01/03 10:41:40;;;;;;;12.07;7.10;;;7.50;99.90;;;;;;5057295;28;20756;-62
2023/01/03 10:44:24;;;;;;;12.53;7.03;;;7.50;99.90;;;;;;5046851;28;20291;-64
2023/01/03 10:46:54;;;;;;;10.77;6.60;;;7.60;99.90;;;;;;5065494;28;20285;-62
2023/01/03 10:49:23;;;;;;;11.83;7.20;;;7.60;99.90;;;;;;5063553;28;21641;-62
2023/01/03 10:52:01;;;;;;;13.93;6.73;;;7.60;99.90;;;;;;5064017;28;20218;-62
2023/01/03 10:54:44;;;;;;;13.90;6.73;;;7.70;99.90;;;;;;5061939;28;20229;-63
2023/01/03 10:57:37;;;;;;;11.30;6.10;;;7.70;99.90;;;;;;5061850;28;20283;-61
2023/01/03 11:00:30;;;;;;;13.07;6.90;;;7.70;99.90;;;;;;5063169;28;20649;-63
2023/01/03 11:03:21;;;;;;;10.43;6.20;;;7.70;99.90;;;;;;5064689;28;20292;-61
2023/01/03 11:06:12;;;;;;;15.30;6.67;;;7.70;99.90;;;;;;5059870;28;20288;-62
2023/01/03 11:08:47;;;;;;;13.27;6.70;;;7.70;99.90;;;;;;5062570;28;20621;-62
2023/01/03 11:11:27;;;;;;;10.37;6.13;;;7.80;99.90;;;;;;5067926;28;20383;-62
2023/01/03 11:14:23;;;;;;;12.17;6.30;;;7.80;99.90;;;;;;5060655;28;20215;-62
2023/01/03 11:17:11;;;;;;;10.00;5.97;;;7.80;99.90;;;;;;5058442;28;20335;-61
2023/01/03 11:19:38;;;;;;;9.20;5.87;;;7.80;99.90;;;;;;5061158;28;20831;-62
2023/01/03 11:22:31;;;;;;;13.83;6.17;;;7.80;99.90;;;;;;5062459;28;20204;-61
2023/01/03 11:25:11;;;;;;;10.23;5.60;;;7.80;99.90;;;;;;5065452;28;20220;-64
2023/01/03 11:27:57;;;;;;;7.13;5.23;;;7.90;99.90;;;;;;5066265;28;20645;-63
2023/01/03 11:30:32;;;;;;;8.57;5.03;;;7.90;99.90;;;;;;5054080;28;20816;-63
2023/01/03 11:33:36;;;;;;;9.83;5.10;;;7.90;99.90;;;;;;5061798;28;20222;-63
2023/01/03 11:36:24;;;;;;;8.57;4.70;;;7.90;99.90;;;;;;5066897;28;20190;-62
2023/01/03 11:39:28;;;;;;;8.27;4.87;;;8.00;99.90;;;;;;5050382;28;20195;-62
2023/01/03 11:42:33;;;;;;;8.60;6.17;;;8.00;99.90;;;;;;5028784;28;20360;-62
2023/01/03 11:45:09;;;;;;;8.03;5.27;;;8.00;99.90;;;;;;5058073;28;20216;-63
2023/01/03 11:47:57;;;;;;;7.93;6.00;;;8.00;99.90;;;;;;5052764;28;20551;-62
2023/01/03 11:50:44;;;;;;;10.20;6.20;;;7.90;99.90;;;;;;5057684;28;20217;-63
2023/01/03 11:53:19;;;;;;;11.87;6.17;;;8.00;99.90;;;;;;5058936;28;20887;-62
2023/01/03 11:55:49;;;;;;;17.37;8.03;;;8.00;99.90;;;;;;5062285;28;20660;-62
2023/01/03 11:58:37;;;;;;;14.70;7.37;;;8.10;99.90;;;;;;5066257;28;20222;-62
2023/01/03 12:01:19;;;;;;;14.10;8.60;;;8.00;99.90;;;;;;5066824;28;20563;-62
2023/01/03 12:04:23;;;;;;;11.53;7.07;;;8.10;99.90;;;;;;5066099;28;20254;-62
2023/01/03 12:07:16;;;;;;;11.87;7.60;;;8.00;99.90;;;;;;5063790;28;20295;-61
2023/01/03 12:10:14;;;;;;;13.40;7.80;;;8.00;99.90;;;;;;5072296;28;20211;-61
2023/01/03 12:12:59;;;;;;;11.80;7.47;;;8.00;99.90;;;;;;5065906;28;20211;-62
2023/01/03 12:15:42;;;;;;;10.00;6.63;;;8.20;99.90;;;;;;5055910;28;20332;-63
2023/01/03 12:18:36;;;;;;;11.80;7.63;;;8.10;99.90;;;;;;5059750;28;20207;-62
2023/01/03 12:21:26;;;;;;;8.73;4.90;;;8.20;99.90;;;;;;5063650;28;20206;-62
2023/01/03 12:24:18;;;;;;;6.93;5.73;;;8.20;99.90;;;;;;5046930;28;20264;-61
2023/01/03 12:26:52;;;;;;;14.83;5.57;;;8.30;99.90;;;;;;5055827;28;20198;-61
2023/01/03 12:29:25;;;;;;;9.53;4.67;;;8.20;99.90;;;;;;5062279;28;20672;-62
2023/01/03 12:32:15;;;;;;;7.77;4.90;;;8.30;99.90;;;;;;5061999;28;20212;-62
2023/01/03 12:34:49;;;;;;;5.93;3.90;;;8.30;99.90;;;;;;5058329;28;20649;-61
2023/01/03 12:37:17;;;;;;;8.57;4.93;;;8.20;99.90;;;;;;5063785;28;20737;-62
2023/01/03 12:40:03;;;;;;;6.10;3.70;;;8.20;99.90;;;;;;5062583;28;20199;-65
2023/01/03 12:42:50;;;;;;;6.87;3.67;;;8.30;99.90;;;;;;5063827;28;20748;-61
2023/01/03 12:45:43;;;;;;;5.03;3.57;;;8.30;99.90;;;;;;5060959;28;20196;-62
2023/01/03 12:49:03;;;;;;;6.77;3.73;;;8.30;99.90;;;;;;5067938;28;20207;-63
2023/01/03 12:51:30;;;;;;;5.53;3.30;;;8.30;99.90;;;;;;4992624;28;20214;-62
2023/01/03 12:54:12;;;;;;;6.37;3.10;;;8.30;99.90;;;;;;4980580;28;21103;-62
2023/01/03 12:57:14;;;;;;;7.60;3.47;;;8.30;99.90;;;;;;4995205;28;20298;-62
2023/01/03 13:00:03;;;;;;;6.00;3.70;;;8.30;99.90;;;;;;4997011;28;20197;-62
2023/01/03 13:03:04;;;;;;;8.03;3.60;;;8.30;99.90;;;;;;4996883;28;20205;-61
2023/01/03 13:05:41;;;;;;;4.37;3.50;;;8.40;99.90;;;;;;4995668;28;20203;-63
2023/01/03 13:08:31;;;;;;;2.80;2.50;;;8.30;99.90;;;;;;4990396;28;20208;-62
2023/01/03 13:11:17;;;;;;;7.67;3.33;;;8.30;99.90;;;;;;4998210;28;20258;-61
2023/01/03 13:14:25;;;;;;;4.93;3.20;;;8.40;99.90;;;;;;4992527;28;20236;-62
2023/01/03 13:17:18;;;;;;;5.47;3.10;;;8.40;99.90;;;;;;4998298;28;20316;-62
2023/01/03 13:19:51;;;;;;;6.50;2.90;;;8.40;99.90;;;;;;4993225;28;20205;-62
2023/01/03 13:22:32;;;;;;;5.80;3.27;;;8.40;99.90;;;;;;5032377;28;20205;-61
2023/01/03 13:25:27;;;;;;;7.90;3.40;;;8.40;99.90;;;;;;5057618;28;20293;-61
2023/01/03 13:28:18;;;;;;;4.07;2.90;;;8.50;99.90;;;;;;5053955;28;20215;-62
2023/01/03 13:30:46;;;;;;;3.30;2.60;;;8.50;99.90;;;;;;5052590;28;20268;-61
2023/01/03 13:33:15;;;;;;;4.10;3.10;;;8.50;99.90;;;;;;5059312;28;20272;-61
2023/01/03 13:35:42;;;;;;;5.67;2.80;;;8.50;99.90;;;;;;5057981;28;20230;-62
2023/01/03 13:38:31;;;;;;;7.00;2.67;;;8.60;99.90;;;;;;5063703;28;20585;-61
2023/01/03 13:41:00;;;;;;;13.17;3.57;;;8.60;99.90;;;;;;5065695;28;20720;-61
2023/01/03 13:43:49;;;;;;;4.43;2.70;;;8.70;99.90;;;;;;5062061;28;20307;-62
2023/01/03 13:46:21;;;;;;;6.50;2.80;;;8.70;99.90;;;;;;5063706;28;20590;-62
2023/01/03 13:48:55;;;;;;;5.47;2.57;;;8.70;99.90;;;;;;5066801;28;20204;-61
2023/01/03 13:51:31;;;;;;;3.93;2.90;;;8.70;99.90;;;;;;5062867;28;20207;-62
2023/01/03 13:54:00;;;;;;;5.07;3.17;;;8.60;99.90;;;;;;5064827;28;20619;-63
2023/01/03 13:56:31;;;;;;;4.77;2.30;;;8.70;99.90;;;;;;5057356;28;20206;-61
2023/01/03 13:59:10;;;;;;;6.63;2.60;;;8.80;99.90;;;;;;5058194;28;20659;-62
2023/01/03 14:01:52;;;;;;;6.60;2.33;;;8.80;99.90;;;;;;5067511;28;20941;-63
2023/01/03 14:04:34;;;;;;;5.40;2.50;;;8.90;99.90;;;;;;5064823;28;20301;-62
2023/01/03 14:07:12;;;;;;;4.83;2.57;;;8.80;99.90;;;;;;5064293;28;20204;-62
2023/01/03 14:09:45;;;;;;;5.30;2.50;;;8.70;99.90;;;;;;5061118;28;20195;-61
2023/01/03 14:12:25;;;;;;;9.50;2.37;;;8.70;99.90;;;;;;5061390;28;20855;-62
2023/01/03 14:14:54;;;;;;;5.20;2.53;;;8.70;99.90;;;;;;5059182;28;20209;-61
2023/01/03 14:17:29;;;;;;;6.07;2.53;;;8.70;99.90;;;;;;5060574;28;20587;-61
2023/01/03 14:20:03;;;;;;;5.80;2.13;;;8.80;99.90;;;;;;5062536;28;20198;-62
2023/01/03 14:22:38;;;;;;;5.33;2.37;;;8.70;99.90;;;;;;5061152;28;20256;-61
2023/01/03 14:25:06;;;;;;;5.03;1.80;;;8.80;99.90;;;;;;5060227;28;20599;-61
2023/01/03 14:27:39;;;;;;;3.13;2.00;;;8.80;99.90;;;;;;5058098;28;20655;-63